Time;durP1;ratioP1;P1;durP2;ratioP2;P2;SDS_P1;SDS_P2;PMS_P1;PMS_P2;Temp;Humidity;BMP_temperature;BMP_pressure;BME280_temperature;BME280_humidity;BME280_pressure;Samples;Min_cycle;Max_cycle;Signal;HPM_P1;HPM_P2
2022/01/26 00:06:19;;;;;;;6.55;2.83;;;-12.30;99.90;;;;;;2224658;64;20084;-46
2022/01/26 00:08:46;;;;;;;9.57;2.77;;;-12.40;99.90;;;;;;2224795;64;20092;-45
2022/01/26 00:11:12;;;;;;;4.07;1.23;;;-12.40;99.90;;;;;;2220720;64;20094;-45
2022/01/26 00:13:39;;;;;;;9.23;2.57;;;-12.30;99.90;;;;;;2224736;64;20177;-46
2022/01/26 00:16:09;;;;;;;7.07;2.40;;;-12.40;99.90;;;;;;2220841;64;20072;-43
2022/01/26 00:18:37;;;;;;;4.80;1.93;;;-12.40;99.90;;;;;;2224909;64;20106;-48
2022/01/26 00:21:17;;;;;;;8.13;3.10;;;-12.40;99.90;;;;;;2224887;64;20088;-44
2022/01/26 00:24:04;;;;;;;7.17;2.37;;;-12.50;99.90;;;;;;2224593;64;20464;-46
2022/01/26 00:27:25;;;;;;;5.17;1.87;;;-12.50;99.90;;;;;;2221309;64;20092;-46
2022/01/26 00:29:17;;;;;;;9.40;3.10;;;-12.50;99.90;;;;;;2217924;64;20104;-47
2022/01/26 00:40:12;;;;;;;4.33;1.93;;;-12.60;99.90;;;;;;2220739;64;20645;-46
2022/01/26 00:42:41;;;;;;;5.88;1.45;;;-12.60;99.90;;;;;;2220806;64;20103;-45
2022/01/26 00:45:09;;;;;;;5.70;1.40;;;-12.60;99.90;;;;;;2220820;64;20149;-44
2022/01/26 00:47:36;;;;;;;1.87;1.00;;;-12.60;99.90;;;;;;2220808;64;20108;-45
2022/01/26 00:50:06;;;;;;;10.20;3.17;;;-12.60;99.90;;;;;;2220643;64;20096;-47
2022/01/26 00:52:44;;;;;;;3.40;1.23;;;-12.60;99.90;;;;;;2220812;64;20081;-48
2022/01/26 00:55:15;;;;;;;5.70;1.53;;;-12.60;99.90;;;;;;2217180;64;20123;-44
2022/01/26 00:57:42;;;;;;;6.73;2.23;;;-12.60;99.90;;;;;;2220973;64;20097;-44
2022/01/26 01:00:11;;;;;;;8.20;2.40;;;-12.60;99.90;;;;;;2220511;64;20487;-46
2022/01/26 01:02:38;;;;;;;5.00;1.57;;;-12.60;99.90;;;;;;2220814;64;20103;-44
2022/01/26 01:05:13;;;;;;;5.17;1.20;;;-12.60;99.90;;;;;;2220697;64;20085;-44
2022/01/26 01:07:40;;;;;;;3.97;1.67;;;-12.60;99.90;;;;;;2220845;64;20080;-47
2022/01/26 01:10:07;;;;;;;2.83;1.10;;;-12.60;99.90;;;;;;2220556;64;20552;-43
2022/01/26 01:12:40;;;;;;;14.73;2.30;;;-12.50;99.90;;;;;;2220731;64;20089;-48
2022/01/26 01:15:07;;;;;;;8.70;1.30;;;-12.50;99.90;;;;;;2220687;64;20084;-44
2022/01/26 01:17:39;;;;;;;4.57;2.43;;;-12.50;99.90;;;;;;2220838;64;20111;-51
2022/01/26 01:21:29;;;;;;;5.57;3.10;;;-12.50;99.90;;;;;;2216996;64;20480;-47
2022/01/26 01:28:25;;;;;;;2.57;1.10;;;-12.40;99.90;;;;;;2224523;64;20080;-47
2022/01/26 01:31:00;;;;;;;3.33;1.17;;;-12.50;99.90;;;;;;2224554;64;20173;-47
2022/01/26 01:33:32;;;;;;;;;;;-12.40;99.90;;;;;;2224720;64;20165;-45
2022/01/26 01:36:00;;;;;;;6.10;1.50;;;-12.40;99.90;;;;;;2224676;64;19972;-44
2022/01/26 01:38:29;;;;;;;4.83;0.87;;;-12.40;99.90;;;;;;2224441;64;20092;-46
2022/01/26 01:40:55;;;;;;;1.27;1.17;;;-12.40;99.90;;;;;;2224567;64;20084;-45
2022/01/26 01:43:22;;;;;;;3.17;1.90;;;-12.40;99.90;;;;;;2224410;64;20088;-47
2022/01/26 01:45:51;;;;;;;3.60;1.60;;;-12.40;99.90;;;;;;2224515;64;20099;-45
2022/01/26 01:48:26;;;;;;;6.57;1.40;;;-12.30;99.90;;;;;;2224376;64;20111;-43
2022/01/26 01:50:54;;;;;;;4.20;1.50;;;-12.30;99.90;;;;;;2224484;64;20138;-49
2022/01/26 01:53:29;;;;;;;6.37;1.63;;;-12.30;99.90;;;;;;2224446;64;20670;-47
2022/01/26 01:55:58;;;;;;;6.20;1.63;;;-12.30;99.90;;;;;;2224351;64;20623;-47
2022/01/26 01:58:25;;;;;;;2.53;1.03;;;-12.30;99.90;;;;;;2224409;64;20103;-48
2022/01/26 02:00:51;;;;;;;10.30;2.53;;;-12.30;99.90;;;;;;2220642;64;20574;-45
2022/01/26 02:03:18;;;;;;;4.77;1.40;;;-12.30;99.90;;;;;;2224455;64;20100;-41
2022/01/26 02:05:44;;;;;;;6.40;2.53;;;-12.20;99.90;;;;;;2224639;64;20568;-47
2022/01/26 02:08:18;;;;;;;5.27;2.20;;;-12.20;99.90;;;;;;2220131;64;20568;-44
2022/01/26 02:10:45;;;;;;;6.93;2.40;;;-12.20;99.90;;;;;;2224951;64;20298;-45
2022/01/26 02:13:25;;;;;;;9.27;2.97;;;-12.20;99.90;;;;;;2225215;64;20103;-47
2022/01/26 02:16:02;;;;;;;10.30;2.60;;;-12.20;99.90;;;;;;2225071;64;20084;-47
2022/01/26 02:18:54;;;;;;;9.23;3.17;;;-12.30;99.90;;;;;;2224898;64;20142;-47
2022/01/26 02:49:43;;;;;;;3.55;1.13;;;-12.20;99.90;;;;;;2221173;64;20116;-41
2022/01/26 02:52:02;;;;;;;4.47;2.10;;;-12.20;99.90;;;;;;2218535;64;20172;-44
2022/01/26 02:54:45;;;;;;;11.07;2.87;;;-12.20;99.90;;;;;;2216749;64;20093;-49
2022/01/26 03:05:11;;;;;;;9.67;2.60;;;-12.20;99.90;;;;;;2216946;64;20556;-45
2022/01/26 03:07:45;;;;;;;6.60;2.10;;;-12.20;99.90;;;;;;2217192;64;20170;-47
2022/01/26 03:10:30;;;;;;;9.82;2.17;;;-12.20;99.90;;;;;;2216905;64;20121;-48
2022/01/26 03:13:03;;;;;;;7.90;2.35;;;-12.20;99.90;;;;;;2217236;64;20477;-50
2022/01/26 03:15:36;;;;;;;5.10;2.00;;;-12.20;99.90;;;;;;2217118;64;20105;-46
2022/01/26 03:20:49;;;;;;;4.78;1.98;;;-12.20;99.90;;;;;;2217302;64;20081;-46
2022/01/26 03:36:45;;;;;;;9.00;3.37;;;-12.20;99.90;;;;;;2220913;64;20085;-45
2022/01/26 03:39:14;;;;;;;5.23;1.60;;;-12.10;99.90;;;;;;2220916;64;20107;-48
2022/01/26 03:41:45;;;;;;;7.70;1.97;;;-12.10;99.90;;;;;;2220927;64;20092;-46
2022/01/26 03:44:11;;;;;;;2.30;1.00;;;-12.20;99.90;;;;;;2220868;64;20790;-45
2022/01/26 03:46:38;;;;;;;5.90;1.73;;;-12.10;99.90;;;;;;2220301;64;20592;-45
2022/01/26 03:49:05;;;;;;;8.70;1.77;;;-12.20;99.90;;;;;;2220002;64;20088;-45
2022/01/26 03:51:32;;;;;;;15.17;3.83;;;-12.10;99.90;;;;;;2220954;64;20111;-46
2022/01/26 03:53:59;;;;;;;8.73;3.37;;;-12.20;99.90;;;;;;2221243;64;20190;-51
2022/01/26 03:56:25;;;;;;;6.77;2.20;;;-12.10;99.90;;;;;;2224734;64;20080;-45
2022/01/26 03:58:52;;;;;;;7.83;2.20;;;-12.20;99.90;;;;;;2224711;64;20096;-45
2022/01/26 04:01:18;;;;;;;6.40;1.67;;;-12.20;99.90;;;;;;2224683;64;20088;-46
2022/01/26 04:03:45;;;;;;;4.17;1.40;;;-12.20;99.90;;;;;;2217547;64;20151;-47
2022/01/26 04:06:11;;;;;;;7.03;2.83;;;-12.10;99.90;;;;;;2224837;64;20080;-45
2022/01/26 04:08:40;;;;;;;4.47;1.47;;;-12.10;99.90;;;;;;2220871;64;20092;-46
2022/01/26 04:11:30;;;;;;;9.83;3.37;;;-12.10;99.90;;;;;;2224793;64;20092;-50
2022/01/26 04:14:00;;;;;;;5.87;1.30;;;-12.10;99.90;;;;;;2220849;64;20583;-51
2022/01/26 04:16:26;;;;;;;7.17;2.33;;;-12.20;99.90;;;;;;2224819;64;20159;-44
2022/01/26 04:18:55;;;;;;;10.17;2.90;;;-12.20;99.90;;;;;;2224787;64;20107;-46
2022/01/26 04:21:43;;;;;;;11.43;2.17;;;-12.10;99.90;;;;;;2224865;64;20076;-47
2022/01/26 04:24:21;;;;;;;5.70;2.17;;;-12.10;99.90;;;;;;2221451;64;20106;-47
2022/01/26 04:29:23;;;;;;;11.67;2.27;;;-12.20;99.90;;;;;;2220540;64;20107;-44
2022/01/26 04:31:49;;;;;;;8.40;2.80;;;-12.10;99.90;;;;;;2217119;64;20088;-41
2022/01/26 04:34:16;;;;;;;8.80;2.97;;;-12.10;99.90;;;;;;2220438;64;20516;-46
2022/01/26 04:36:57;;;;;;;8.37;2.80;;;-12.10;99.90;;;;;;2216887;64;20088;-47
2022/01/26 04:39:29;;;;;;;10.63;3.20;;;-12.10;99.90;;;;;;2220659;64;20155;-46
2022/01/26 04:42:09;;;;;;;11.53;3.00;;;-12.20;99.90;;;;;;2220685;64;20081;-45
2022/01/26 04:44:42;;;;;;;9.57;2.60;;;-12.20;99.90;;;;;;2220525;64;20448;-47
2022/01/26 04:47:09;;;;;;;10.40;2.57;;;-12.20;99.90;;;;;;2220676;64;20148;-42
2022/01/26 04:49:35;;;;;;;10.77;3.83;;;-12.20;99.90;;;;;;2220545;64;20107;-48
2022/01/26 04:52:02;;;;;;;5.70;1.93;;;-12.20;99.90;;;;;;2220845;64;20506;-46
2022/01/26 04:54:29;;;;;;;11.57;3.13;;;-12.20;99.90;;;;;;2220450;64;20092;-46
2022/01/26 04:56:55;;;;;;;10.20;1.07;;;-12.20;99.90;;;;;;2220740;64;20180;-47
2022/01/26 04:59:22;;;;;;;8.60;2.10;;;-12.20;99.90;;;;;;2220474;64;20131;-48
2022/01/26 05:01:48;;;;;;;10.53;3.07;;;-12.20;99.90;;;;;;2216680;64;20530;-48
2022/01/26 05:04:15;;;;;;;3.20;0.97;;;-12.10;99.90;;;;;;2220597;64;20196;-50
2022/01/26 05:06:41;;;;;;;12.57;3.63;;;-12.10;99.90;;;;;;2220809;64;20080;-48
2022/01/26 05:09:08;;;;;;;12.27;2.60;;;-12.10;99.90;;;;;;2220532;64;20552;-46
2022/01/26 05:11:38;;;;;;;9.87;3.27;;;-12.10;99.90;;;;;;2220731;64;20084;-50
2022/01/26 05:14:04;;;;;;;9.10;3.20;;;-12.10;99.90;;;;;;2220467;64;20112;-47
2022/01/26 05:16:31;;;;;;;12.60;3.03;;;-12.10;99.90;;;;;;2220543;64;20100;-48
2022/01/26 05:18:58;;;;;;;13.33;3.63;;;-12.00;99.90;;;;;;2220681;64;20160;-52
2022/01/26 05:21:25;;;;;;;3.77;1.73;;;-12.00;99.90;;;;;;2220811;64;20575;-47
2022/01/26 05:23:51;;;;;;;11.73;3.77;;;-12.00;99.90;;;;;;2220424;64;20076;-53
2022/01/26 05:26:18;;;;;;;8.53;2.33;;;-12.00;99.90;;;;;;2219998;64;20138;-53
2022/01/26 05:28:44;;;;;;;8.07;2.97;;;-12.00;99.90;;;;;;2224323;64;20107;-52
2022/01/26 05:31:11;;;;;;;6.40;2.67;;;-12.00;99.90;;;;;;2224489;64;20138;-48
2022/01/26 05:33:37;;;;;;;5.87;2.33;;;-12.00;99.90;;;;;;2224362;64;20088;-52
2022/01/26 05:36:04;;;;;;;5.53;2.33;;;-12.00;99.90;;;;;;2224507;64;20464;-50
2022/01/26 05:38:31;;;;;;;7.03;1.73;;;-11.90;99.90;;;;;;2224133;64;20100;-47
2022/01/26 05:41:01;;;;;;;6.73;1.57;;;-11.90;99.90;;;;;;2224559;64;20119;-46
2022/01/26 05:43:31;;;;;;;7.10;2.10;;;-11.90;99.90;;;;;;2221392;64;20091;-46
2022/01/26 05:46:06;;;;;;;5.97;1.93;;;-11.90;99.90;;;;;;2225259;64;20100;-50
2022/01/26 05:48:34;;;;;;;3.58;1.67;;;-11.90;99.90;;;;;;2221513;64;20108;-49
2022/01/26 05:51:06;;;;;;;3.50;1.30;;;-11.80;99.90;;;;;;2221490;64;20617;-44
2022/01/26 05:53:33;;;;;;;13.63;2.97;;;-11.80;99.90;;;;;;2225083;64;20084;-48
2022/01/26 05:56:00;;;;;;;5.90;2.77;;;-11.80;99.90;;;;;;2225145;64;20169;-47
2022/01/26 05:58:27;;;;;;;8.50;3.47;;;-11.70;99.90;;;;;;2217948;64;20088;-50
2022/01/26 06:00:54;;;;;;;4.00;1.93;;;-11.70;99.90;;;;;;2221320;64;20209;-49
2022/01/26 06:03:20;;;;;;;5.57;1.77;;;-11.70;99.90;;;;;;2224959;64;20534;-47
2022/01/26 06:05:47;;;;;;;8.40;2.57;;;-11.60;99.90;;;;;;2225062;64;20099;-51
2022/01/26 06:08:13;;;;;;;8.93;3.53;;;-11.60;99.90;;;;;;2225064;64;20084;-49
2022/01/26 06:10:40;;;;;;;8.30;2.30;;;-11.60;99.90;;;;;;2225009;64;20173;-49
2022/01/26 06:13:06;;;;;;;8.03;3.20;;;-11.60;99.90;;;;;;2224901;64;20152;-48
2022/01/26 06:15:32;;;;;;;5.10;1.97;;;-11.50;99.90;;;;;;2225109;64;20646;-49
2022/01/26 06:17:59;;;;;;;9.80;3.57;;;-11.50;99.90;;;;;;2224698;64;20115;-47
2022/01/26 06:20:25;;;;;;;6.87;2.07;;;-11.50;99.90;;;;;;2224956;64;20433;-51
2022/01/26 06:22:52;;;;;;;13.30;3.80;;;-11.50;99.90;;;;;;2224991;64;20530;-50
2022/01/26 06:25:18;;;;;;;11.60;3.93;;;-11.50;99.90;;;;;;2223527;64;20100;-50
2022/01/26 06:27:45;;;;;;;3.37;1.90;;;-11.40;99.90;;;;;;2221166;64;20085;-52
2022/01/26 06:30:12;;;;;;;6.73;1.93;;;-11.40;99.90;;;;;;2221018;64;20085;-47
2022/01/26 06:32:39;;;;;;;8.20;3.83;;;-11.40;99.90;;;;;;2217546;64;20092;-51
2022/01/26 06:35:07;;;;;;;13.97;5.43;;;-11.30;99.90;;;;;;2221457;64;20534;-54
2022/01/26 06:37:33;;;;;;;9.73;3.00;;;-11.30;99.90;;;;;;2221272;64;20093;-45
2022/01/26 06:39:59;;;;;;;9.43;3.13;;;-11.30;99.90;;;;;;2221286;64;20537;-54
2022/01/26 06:42:31;;;;;;;4.13;1.90;;;-11.30;99.90;;;;;;2220935;64;20568;-54
2022/01/26 06:49:53;;;;;;;10.37;3.23;;;-11.20;99.90;;;;;;2221054;64;20143;-48
2022/01/26 06:52:20;;;;;;;17.80;6.60;;;-11.20;99.90;;;;;;2220920;64;20449;-51
2022/01/26 06:54:46;;;;;;;7.53;2.20;;;-11.10;99.90;;;;;;2220898;64;20100;-48
2022/01/26 06:57:13;;;;;;;9.40;3.30;;;-11.10;99.90;;;;;;2216799;64;20093;-48
2022/01/26 06:59:39;;;;;;;8.40;1.80;;;-11.10;99.90;;;;;;2221036;64;20119;-49
2022/01/26 07:02:06;;;;;;;6.93;2.03;;;-11.00;99.90;;;;;;2220961;64;20152;-49
2022/01/26 07:04:32;;;;;;;13.23;3.73;;;-11.00;99.90;;;;;;2221167;64;20644;-52
2022/01/26 07:06:58;;;;;;;11.10;3.80;;;-11.00;99.90;;;;;;2221032;64;20085;-48
2022/01/26 07:09:25;;;;;;;16.10;5.83;;;-11.00;99.90;;;;;;2220981;64;20116;-52
2022/01/26 07:11:51;;;;;;;10.90;3.93;;;-10.90;99.90;;;;;;2220704;64;20113;-54
2022/01/26 07:19:49;;;;;;;9.37;2.80;;;-10.90;99.90;;;;;;2220919;64;20559;-54
2022/01/26 07:20:22;;;;;;;7.75;1.98;;;-10.80;99.90;;;;;;2220775;64;20092;-49
2022/01/26 07:22:41;;;;;;;9.53;3.43;;;-10.70;99.90;;;;;;2220929;64;20085;-53
2022/01/26 07:25:08;;;;;;;12.57;5.10;;;-10.60;99.90;;;;;;2222109;64;20088;-49
2022/01/26 07:27:34;;;;;;;7.47;3.10;;;-10.50;99.90;;;;;;2224647;64;20096;-49
2022/01/26 07:30:01;;;;;;;7.73;2.47;;;-10.50;99.90;;;;;;2224761;64;20080;-52
2022/01/26 07:32:29;;;;;;;7.60;2.33;;;-10.50;99.90;;;;;;2224658;64;20110;-52
2022/01/26 07:34:56;;;;;;;8.47;2.73;;;-10.40;99.90;;;;;;2224851;64;20095;-50
2022/01/26 07:37:24;;;;;;;12.67;2.17;;;-10.30;99.90;;;;;;2224728;64;20084;-46
2022/01/26 07:40:03;;;;;;;6.20;2.23;;;-10.20;99.90;;;;;;2224886;64;20088;-47
2022/01/26 07:42:31;;;;;;;7.23;2.03;;;-10.20;99.90;;;;;;2224797;64;20080;-50
2022/01/26 07:44:57;;;;;;;5.43;1.73;;;-10.10;99.90;;;;;;2217682;64;20107;-48
2022/01/26 07:47:23;;;;;;;7.40;3.00;;;-10.00;99.90;;;;;;2224598;64;20094;-50
2022/01/26 07:49:54;;;;;;;12.83;2.30;;;-10.00;99.90;;;;;;2224807;64;20080;-48
2022/01/26 07:52:20;;;;;;;4.03;1.80;;;-10.00;99.90;;;;;;2224687;64;20084;-49
2022/01/26 07:54:50;;;;;;;7.97;2.37;;;-9.90;99.90;;;;;;2224701;64;20106;-44
2022/01/26 07:57:18;;;;;;;10.53;3.00;;;-9.70;99.90;;;;;;2224679;64;20084;-56
2022/01/26 07:59:45;;;;;;;6.20;2.07;;;-9.70;99.90;;;;;;2224644;64;20088;-49
2022/01/26 08:02:11;;;;;;;6.67;2.43;;;-9.70;99.90;;;;;;2224625;64;20092;-49
2022/01/26 08:04:38;;;;;;;6.00;2.43;;;-9.70;99.90;;;;;;2220673;64;20552;-42
2022/01/26 08:07:04;;;;;;;7.63;1.73;;;-9.70;99.90;;;;;;2224568;64;20080;-48
2022/01/26 08:09:31;;;;;;;6.80;2.60;;;-9.70;99.90;;;;;;2224687;64;20554;-50
2022/01/26 08:11:57;;;;;;;7.27;3.03;;;-9.60;99.90;;;;;;2224671;64;20579;-47
2022/01/26 08:14:24;;;;;;;9.27;2.60;;;-9.50;99.90;;;;;;2224650;64;20111;-53
2022/01/26 08:16:50;;;;;;;7.93;2.63;;;-9.40;99.90;;;;;;2224622;64;20088;-52
2022/01/26 08:19:18;;;;;;;8.87;2.60;;;-9.40;99.90;;;;;;2224786;64;20184;-55
2022/01/26 08:21:44;;;;;;;7.17;1.80;;;-9.20;99.90;;;;;;2224546;64;20088;-52
2022/01/26 08:24:15;;;;;;;6.00;2.20;;;-9.20;99.90;;;;;;2224677;64;20084;-53
2022/01/26 08:26:48;;;;;;;8.27;2.60;;;-9.30;99.90;;;;;;2220717;64;20080;-50
2022/01/26 08:29:24;;;;;;;9.27;1.73;;;-9.20;99.90;;;;;;2220753;64;20097;-51
2022/01/26 08:31:50;;;;;;;8.77;1.97;;;-9.10;99.90;;;;;;2220532;64;20495;-50
2022/01/26 08:34:17;;;;;;;7.93;2.93;;;-9.00;99.90;;;;;;2220707;64;20100;-47
2022/01/26 08:36:44;;;;;;;6.83;2.30;;;-9.00;99.90;;;;;;2220605;64;20179;-47
2022/01/26 08:39:10;;;;;;;11.53;2.83;;;-9.00;99.90;;;;;;2220699;64;20166;-44
2022/01/26 08:41:36;;;;;;;6.73;2.57;;;-9.10;99.90;;;;;;2220721;64;20467;-48
2022/01/26 08:44:03;;;;;;;6.97;2.20;;;-9.10;99.90;;;;;;2220737;64;20576;-52
2022/01/26 08:46:30;;;;;;;8.83;2.23;;;-9.00;99.90;;;;;;2220383;64;20492;-51
2022/01/26 08:48:56;;;;;;;8.57;2.53;;;-9.00;99.90;;;;;;2220691;64;20093;-49
2022/01/26 08:51:23;;;;;;;5.63;2.00;;;-9.00;99.90;;;;;;2220668;64;20472;-49
2022/01/26 08:53:49;;;;;;;5.87;2.23;;;-9.00;99.90;;;;;;2216888;64;20104;-51
2022/01/26 08:56:16;;;;;;;7.63;2.77;;;-8.90;99.90;;;;;;2220359;64;20156;-51
2022/01/26 08:58:43;;;;;;;8.23;3.23;;;-8.90;99.90;;;;;;2220733;64;20548;-50
2022/01/26 09:01:09;;;;;;;5.77;2.03;;;-8.90;99.90;;;;;;2220604;64;20076;-49
2022/01/26 09:03:39;;;;;;;6.83;3.00;;;-8.90;99.90;;;;;;2220715;64;20080;-49
2022/01/26 09:06:07;;;;;;;5.63;2.43;;;-8.90;99.90;;;;;;2220407;64;20484;-47
2022/01/26 09:08:34;;;;;;;5.90;2.13;;;-8.90;99.90;;;;;;2220575;64;20181;-52
2022/01/26 09:11:02;;;;;;;9.53;2.27;;;-8.90;99.90;;;;;;2220626;64;20096;-52
2022/01/26 09:13:34;;;;;;;6.33;2.30;;;-8.80;99.90;;;;;;2216790;64;20092;-53
2022/01/26 09:16:03;;;;;;;9.80;3.03;;;-8.80;99.90;;;;;;2220591;64;20091;-49
2022/01/26 09:18:46;;;;;;;6.30;1.93;;;-8.80;99.90;;;;;;2216776;64;20091;-49
2022/01/26 09:21:13;;;;;;;9.67;3.37;;;-8.80;99.90;;;;;;2220471;64;20096;-47
2022/01/26 09:23:39;;;;;;;7.03;2.13;;;-8.70;99.90;;;;;;2220686;64;20085;-50
2022/01/26 09:26:06;;;;;;;9.87;2.00;;;-8.60;99.90;;;;;;2223347;64;20076;-48
2022/01/26 09:28:32;;;;;;;10.20;2.93;;;-8.60;99.90;;;;;;2224451;64;20114;-48
2022/01/26 09:30:59;;;;;;;5.33;2.60;;;-8.50;99.90;;;;;;2224341;64;20088;-48
2022/01/26 09:33:25;;;;;;;6.63;2.83;;;-8.50;99.90;;;;;;2224509;64;20107;-53
2022/01/26 09:35:52;;;;;;;11.43;3.43;;;-8.40;99.90;;;;;;2224487;64;20084;-48
2022/01/26 09:38:18;;;;;;;12.50;2.03;;;-8.30;99.90;;;;;;2224324;64;20167;-51
2022/01/26 09:40:47;;;;;;;8.47;2.50;;;-8.30;99.90;;;;;;2224378;64;20678;-45
2022/01/26 09:43:14;;;;;;;7.67;3.07;;;-8.30;99.90;;;;;;2224331;64;20115;-41
2022/01/26 09:45:40;;;;;;;8.10;2.73;;;-8.20;99.90;;;;;;2224133;64;20099;-48
2022/01/26 09:48:08;;;;;;;12.67;2.10;;;-8.10;99.90;;;;;;2224479;64;20092;-51
2022/01/26 09:50:35;;;;;;;4.77;1.70;;;-8.10;99.90;;;;;;2223999;64;20534;-47
2022/01/26 09:53:01;;;;;;;6.00;2.03;;;-8.00;99.90;;;;;;2224432;64;20149;-53
2022/01/26 09:55:29;;;;;;;6.07;2.47;;;-8.00;99.90;;;;;;2224084;64;20180;-47
2022/01/26 09:57:58;;;;;;;7.50;2.70;;;-8.00;99.90;;;;;;2220582;64;20096;-48
2022/01/26 10:00:28;;;;;;;5.90;1.43;;;-8.00;99.90;;;;;;2220325;64;20159;-47
2022/01/26 10:03:02;;;;;;;3.97;1.53;;;-8.10;99.90;;;;;;2224308;64;20223;-48
2022/01/26 10:05:45;;;;;;;3.33;1.45;;;-8.00;99.90;;;;;;2224273;64;20134;-47
2022/01/26 10:16:19;;;;;;;10.10;2.27;;;-8.00;99.90;;;;;;2224191;64;20088;-48
2022/01/26 10:18:49;;;;;;;5.45;2.40;;;-8.10;99.90;;;;;;2224121;64;20092;-47
2022/01/26 10:21:15;;;;;;;11.80;2.07;;;-8.10;99.90;;;;;;2220521;64;20099;-42
2022/01/26 10:23:42;;;;;;;8.10;2.20;;;-8.20;99.90;;;;;;2224354;64;20080;-48
2022/01/26 10:26:13;;;;;;;9.10;2.80;;;-8.20;99.90;;;;;;2221263;64;20517;-49
2022/01/26 10:28:53;;;;;;;6.13;2.87;;;-8.30;99.90;;;;;;2220523;64;20077;-45
2022/01/26 10:31:30;;;;;;;10.50;3.33;;;-8.40;99.90;;;;;;2221150;64;20101;-49
2022/01/26 10:34:04;;;;;;;7.73;2.33;;;-8.40;99.90;;;;;;2217057;64;20103;-48
2022/01/26 10:36:35;;;;;;;8.53;3.83;;;-8.50;99.90;;;;;;2221022;64;20089;-51
2022/01/26 10:39:06;;;;;;;10.20;3.63;;;-8.50;99.90;;;;;;2220850;64;20088;-51
2022/01/26 10:41:33;;;;;;;7.27;3.17;;;-8.60;99.90;;;;;;2221163;64;20556;-52
2022/01/26 10:44:01;;;;;;;6.30;1.60;;;-8.60;99.90;;;;;;2221023;64;20100;-49
2022/01/26 10:46:38;;;;;;;8.70;2.53;;;-8.70;99.90;;;;;;2221185;64;20088;-49
2022/01/26 10:54:41;;;;;;;8.57;2.00;;;-8.80;99.90;;;;;;2217257;64;20119;-48
2022/01/26 10:57:10;;;;;;;11.85;2.75;;;-8.80;99.90;;;;;;2220643;64;20550;-48
2022/01/26 10:59:40;;;;;;;9.33;2.77;;;-8.80;99.90;;;;;;2213667;64;20135;-49
2022/01/26 11:02:07;;;;;;;9.63;2.93;;;-8.80;99.90;;;;;;2220990;64;20120;-48
2022/01/26 11:04:35;;;;;;;3.97;1.90;;;-8.90;99.90;;;;;;2216984;64;20108;-47
2022/01/26 11:07:03;;;;;;;12.30;3.33;;;-9.00;99.90;;;;;;2221076;64;20080;-49
2022/01/26 11:09:31;;;;;;;8.63;2.40;;;-9.00;99.90;;;;;;2220614;64;20483;-43
2022/01/26 11:12:11;;;;;;;8.90;3.20;;;-9.00;99.90;;;;;;2217165;64;20084;-48
2022/01/26 11:14:56;;;;;;;10.77;3.03;;;-9.10;99.90;;;;;;2221077;64;20147;-45
2022/01/26 11:17:33;;;;;;;7.65;3.00;;;-9.20;99.90;;;;;;2220829;64;20160;-47
2022/01/26 11:20:00;;;;;;;12.60;2.73;;;-9.20;99.90;;;;;;2220669;64;20085;-47
2022/01/26 11:22:29;;;;;;;7.60;2.57;;;-9.10;99.90;;;;;;2221051;64;20092;-48
2022/01/26 11:25:07;;;;;;;8.67;2.47;;;-9.20;99.90;;;;;;2221862;64;20594;-48
2022/01/26 11:27:35;;;;;;;9.83;2.43;;;-9.20;99.90;;;;;;2224785;64;20104;-49
2022/01/26 11:30:05;;;;;;;10.67;3.53;;;-9.30;99.90;;;;;;2224494;64;20108;-48
2022/01/26 11:32:37;;;;;;;11.60;3.73;;;-9.30;99.90;;;;;;2217801;64;20088;-45
2022/01/26 11:35:07;;;;;;;11.43;3.63;;;-9.40;99.90;;;;;;2224650;64;20116;-48
2022/01/26 11:37:41;;;;;;;14.17;4.63;;;-9.40;99.90;;;;;;2221191;64;20543;-52
2022/01/26 11:45:27;;;;;;;16.00;3.83;;;-9.50;99.90;;;;;;2220878;64;20002;-42
2022/01/26 11:48:12;;;;;;;16.37;4.13;;;-9.60;99.90;;;;;;2215049;64;20097;-44
2022/01/26 11:50:42;;;;;;;16.25;4.30;;;-9.70;99.90;;;;;;2211806;64;20103;-45
2022/01/26 11:53:11;;;;;;;13.00;3.57;;;-9.70;99.90;;;;;;2212132;64;20446;-48
2022/01/26 11:55:49;;;;;;;9.43;2.90;;;-9.80;99.90;;;;;;2215024;64;20113;-48
2022/01/26 11:58:30;;;;;;;9.37;2.87;;;-9.80;99.90;;;;;;2215171;64;20103;-44
2022/01/26 12:01:17;;;;;;;10.67;2.60;;;-9.80;99.90;;;;;;2215238;64;20104;-45
2022/01/26 12:04:15;;;;;;;12.87;3.87;;;-9.80;99.90;;;;;;2215151;64;20107;-43
2022/01/26 12:06:49;;;;;;;11.37;3.63;;;-9.90;99.90;;;;;;2215343;64;20687;-45
2022/01/26 12:09:15;;;;;;;11.43;3.77;;;-9.90;99.90;;;;;;2212059;64;20155;-45
2022/01/26 12:11:42;;;;;;;7.43;2.77;;;-9.90;99.90;;;;;;2211828;64;20081;-45
2022/01/26 12:14:12;;;;;;;10.77;3.17;;;-9.90;99.90;;;;;;2215237;64;20101;-45
2022/01/26 12:16:43;;;;;;;12.53;3.30;;;-10.00;99.90;;;;;;2215158;64;20326;-43
2022/01/26 12:33:31;;;;;;;11.57;3.33;;;-10.20;99.90;;;;;;2220739;64;19968;-43
2022/01/26 12:43:40;;;;;;;9.93;3.07;;;-10.40;99.90;;;;;;2220703;64;20101;-45
2022/01/26 12:46:08;;;;;;;9.67;2.87;;;-10.40;99.90;;;;;;2220724;64;20090;-46
2022/01/26 12:48:37;;;;;;;9.20;2.30;;;-10.50;99.90;;;;;;2220465;64;20101;-46
2022/01/26 12:51:06;;;;;;;9.70;3.90;;;-10.50;99.90;;;;;;2216652;64;20469;-46
2022/01/26 12:53:35;;;;;;;18.13;5.73;;;-10.50;99.90;;;;;;2220649;64;20173;-44
2022/01/26 12:56:03;;;;;;;12.60;3.37;;;-10.60;99.90;;;;;;2210995;64;20086;-46
2022/01/26 12:58:32;;;;;;;11.47;3.53;;;-10.70;99.90;;;;;;2211167;64;20096;-46
2022/01/26 13:01:06;;;;;;;8.23;2.73;;;-10.60;99.90;;;;;;2211201;64;20105;-47
2022/01/26 13:03:40;;;;;;;16.42;2.95;;;-10.70;99.90;;;;;;2211083;64;20144;-45
2022/01/26 13:06:21;;;;;;;16.33;4.80;;;-10.80;99.90;;;;;;2211191;64;20112;-44
2022/01/26 13:08:48;;;;;;;10.03;4.23;;;-10.80;99.90;;;;;;2211263;64;20096;-48
2022/01/26 13:11:31;;;;;;;11.30;3.63;;;-10.80;99.90;;;;;;2211098;64;20385;-47
2022/01/26 13:14:22;;;;;;;12.60;5.07;;;-10.90;99.90;;;;;;2211303;64;20109;-47
2022/01/26 13:17:13;;;;;;;8.77;2.27;;;-10.90;99.90;;;;;;2211044;64;20086;-44
2022/01/26 13:20:12;;;;;;;17.47;3.50;;;-10.90;99.90;;;;;;2211233;64;20165;-46
2022/01/26 13:25:18;;;;;;;16.33;4.37;;;-11.00;99.90;;;;;;2211160;64;20546;-45
2022/01/26 13:28:14;;;;;;;14.17;3.37;;;-11.10;99.90;;;;;;2221113;64;20161;-45
2022/01/26 13:31:18;;;;;;;10.40;2.53;;;-11.10;99.90;;;;;;2221070;64;20107;-45
2022/01/26 13:34:18;;;;;;;9.43;2.67;;;-11.10;99.90;;;;;;2224285;64;20108;-45
2022/01/26 13:39:48;;;;;;;11.87;4.00;;;-11.20;99.90;;;;;;2211094;64;20094;-44
2022/01/26 13:45:11;;;;;;;21.17;4.97;;;-11.30;99.90;;;;;;2211075;64;20081;-45
2022/01/26 13:48:00;;;;;;;14.40;3.30;;;-11.30;99.90;;;;;;2211000;64;20172;-45
2022/01/26 13:50:30;;;;;;;16.70;4.60;;;-11.30;99.90;;;;;;2208416;64;20094;-47
2022/01/26 13:53:08;;;;;;;12.23;4.30;;;-11.30;99.90;;;;;;2211277;64;20171;-45
2022/01/26 14:00:42;;;;;;;13.00;3.93;;;-11.30;99.90;;;;;;2210952;64;20086;-49
2022/01/26 14:03:11;;;;;;;13.93;3.87;;;-11.40;99.90;;;;;;2211283;64;20078;-44
2022/01/26 14:05:38;;;;;;;14.93;5.30;;;-11.40;99.90;;;;;;2211768;64;20557;-44
2022/01/26 14:08:04;;;;;;;14.20;3.67;;;-11.40;99.90;;;;;;2211681;64;20085;-43
2022/01/26 14:10:32;;;;;;;8.93;3.43;;;-11.40;99.90;;;;;;2208448;64;20085;-47
2022/01/26 14:13:00;;;;;;;13.17;4.07;;;-11.40;99.90;;;;;;2211817;64;20089;-42
2022/01/26 14:15:38;;;;;;;16.03;3.70;;;-11.40;99.90;;;;;;2224340;64;20193;-47
2022/01/26 14:18:11;;;;;;;8.80;2.63;;;-11.40;99.90;;;;;;2225047;64;20084;-44
2022/01/26 14:20:46;;;;;;;11.10;2.83;;;-11.50;99.90;;;;;;2224815;64;20088;-44
2022/01/26 14:25:50;;;;;;;9.15;2.63;;;-11.50;99.90;;;;;;2222642;64;19988;-44
2022/01/26 14:28:20;;;;;;;9.43;3.00;;;-11.50;99.90;;;;;;2221022;64;20081;-45
2022/01/26 14:30:57;;;;;;;12.13;3.63;;;-11.50;99.90;;;;;;2220731;64;20098;-44
2022/01/26 14:36:20;;;;;;;17.07;4.90;;;-11.50;99.90;;;;;;2220917;64;20080;-45
2022/01/26 15:40:53;;;;;;;;;;;-11.70;99.90;;;;;;2224904;64;20130;-44
2022/01/26 15:48:48;;;;;;;11.67;3.67;;;-11.80;99.90;;;;;;2224643;64;20139;-43
2022/01/26 15:51:49;;;;;;;9.43;2.47;;;-11.80;99.90;;;;;;2221128;64;20092;-45
2022/01/26 15:57:37;;;;;;;12.57;2.88;;;-11.80;99.90;;;;;;2224621;64;20096;-43
2022/01/26 16:05:46;;;;;;;;;;;-11.80;99.90;;;;;;2221590;64;20155;-44
2022/01/26 16:21:26;;;;;;;11.95;3.33;;;-11.80;99.90;;;;;;2224699;64;20092;-44
2022/01/26 18:15:36;;;;;;;;;;;-11.70;99.90;;;;;;2220473;64;20180;-45
2022/01/26 18:32:04;;;;;;;14.03;3.87;;;-11.80;99.90;;;;;;2200654;65;20082;-46
2022/01/26 18:50:56;;;;;;;12.35;3.58;;;-11.80;99.90;;;;;;2203931;65;20098;-44
2022/01/26 18:53:23;;;;;;;10.50;3.17;;;-11.80;99.90;;;;;;2203863;65;20098;-44
2022/01/26 18:55:49;;;;;;;13.53;4.10;;;-11.80;99.90;;;;;;2203948;65;20101;-44
2022/01/26 18:58:16;;;;;;;20.10;5.07;;;-11.80;99.90;;;;;;2203748;65;20193;-41
2022/01/26 19:00:44;;;;;;;14.83;5.67;;;-11.80;99.90;;;;;;2217034;64;20129;-44
2022/01/26 19:03:12;;;;;;;26.97;6.77;;;-11.80;99.90;;;;;;2217273;64;20088;-44
2022/01/26 19:05:39;;;;;;;11.20;4.00;;;-11.80;99.90;;;;;;2221197;64;20112;-44
2022/01/26 19:08:05;;;;;;;16.97;6.13;;;-11.80;99.90;;;;;;2221004;64;20081;-46